createdAt,value
2017-05-14T00:01:43.405Z,3.26
2017-05-14T00:04:13.144Z,3.80
2017-05-14T00:06:42.847Z,3.40
2017-05-14T00:09:12.544Z,3.05
2017-05-14T00:11:42.275Z,3.40
2017-05-14T00:14:11.975Z,3.20
2017-05-14T00:16:42.127Z,3.22
2017-05-14T00:19:11.896Z,3.08
2017-05-14T00:21:41.624Z,3.12
2017-05-14T00:24:11.375Z,3.64
2017-05-14T00:26:41.177Z,3.72
2017-05-14T00:29:10.854Z,3.22
2017-05-14T00:31:39.876Z,3.14
2017-05-14T00:34:09.570Z,2.72
2017-05-14T00:36:39.331Z,3.42
2017-05-14T00:39:09.136Z,3.52
2017-05-14T00:41:38.836Z,2.98
2017-05-14T00:44:08.522Z,3.23
2017-05-14T00:46:38.196Z,4.08
2017-05-14T00:49:07.905Z,3.96
2017-05-14T00:51:37.604Z,2.90
2017-05-14T00:54:07.345Z,3.30
2017-05-14T00:56:36.244Z,5.22
2017-05-14T00:59:05.975Z,3.44
2017-05-14T01:01:35.656Z,4.22
2017-05-14T01:04:05.357Z,3.62
2017-05-14T01:06:34.253Z,2.98
2017-05-14T01:09:04.000Z,4.08
2017-05-14T01:11:33.686Z,4.60
2017-05-14T01:14:03.643Z,3.80
2017-05-14T01:16:33.335Z,3.64
2017-05-14T01:19:03.236Z,3.52
2017-05-14T01:21:32.912Z,3.16
2017-05-14T01:24:01.780Z,4.12
2017-05-14T01:26:31.561Z,3.68
2017-05-14T01:29:01.283Z,3.32
2017-05-14T01:31:31.323Z,3.55
2017-05-14T01:34:01.013Z,3.28
2017-05-14T01:36:30.860Z,3.92
2017-05-14T01:39:00.617Z,3.22
2017-05-14T01:41:30.286Z,3.24
2017-05-14T01:44:00.059Z,3.22
2017-05-14T01:46:29.821Z,3.36
2017-05-14T01:48:59.526Z,3.22
2017-05-14T01:51:29.258Z,3.36
2017-05-14T01:53:58.940Z,4.96
2017-05-14T01:56:28.604Z,3.80
2017-05-14T01:58:58.325Z,3.44
2017-05-14T02:01:28.004Z,4.18
2017-05-14T02:03:57.655Z,3.70
2017-05-14T02:06:27.308Z,3.92
2017-05-14T02:08:56.963Z,4.12
2017-05-14T02:14:05.448Z,4.35
2017-05-14T02:16:35.204Z,4.34
2017-05-14T02:19:04.955Z,5.13
2017-05-14T02:22:54.375Z,5.90
2017-05-14T02:25:24.048Z,5.90
2017-05-14T02:27:53.735Z,5.68
2017-05-14T02:30:37.808Z,7.02
2017-05-14T02:33:07.711Z,6.70
2017-05-14T02:35:37.408Z,6.38
2017-05-14T02:38:07.372Z,7.45
2017-05-14T02:40:37.062Z,7.78
2017-05-14T02:43:06.738Z,8.28
2017-05-14T02:45:36.420Z,10.67
2017-05-14T02:48:06.101Z,10.73
2017-05-14T02:50:35.811Z,13.37
2017-05-14T02:53:05.507Z,13.70
2017-05-14T02:55:35.322Z,14.30
2017-05-14T02:58:05.028Z,12.75
2017-05-14T03:00:34.700Z,11.98
2017-05-14T03:03:04.381Z,13.13
2017-05-14T03:05:34.062Z,15.52
2017-05-14T03:08:03.725Z,14.70
2017-05-14T03:10:33.367Z,13.62
2017-05-14T03:13:03.077Z,13.00
2017-05-14T03:15:32.755Z,14.80
2017-05-14T03:18:02.475Z,14.73
2017-05-14T03:20:32.242Z,13.73
2017-05-14T03:23:01.921Z,15.58
2017-05-14T03:25:31.736Z,16.96
2017-05-14T03:28:01.435Z,16.28
2017-05-14T03:30:31.149Z,18.12
2017-05-14T03:33:00.857Z,16.26
2017-05-14T03:35:30.736Z,18.50
2017-05-14T03:38:00.444Z,17.80
2017-05-14T03:40:30.131Z,20.58
2017-05-14T03:42:59.834Z,19.08
2017-05-14T03:45:29.504Z,19.25
2017-05-14T03:47:59.160Z,20.92
2017-05-14T03:50:28.080Z,19.62
2017-05-14T03:52:57.748Z,18.20
2017-05-14T03:55:27.412Z,19.38
2017-05-14T03:57:57.123Z,18.38
2017-05-14T04:00:26.799Z,19.92
2017-05-14T04:02:56.511Z,21.92
2017-05-14T04:05:26.211Z,21.34
2017-05-14T04:07:55.893Z,21.24
2017-05-14T04:10:25.554Z,23.00
2017-05-14T04:12:55.223Z,22.12
2017-05-14T04:15:24.896Z,20.80
2017-05-14T04:17:54.579Z,21.98
2017-05-14T04:20:24.281Z,21.72
2017-05-14T04:22:54.195Z,23.52
2017-05-14T04:25:23.888Z,20.86
2017-05-14T04:27:53.598Z,22.78
2017-05-14T04:30:23.280Z,22.83
2017-05-14T04:32:52.974Z,22.26
2017-05-14T04:35:22.644Z,21.93
2017-05-14T04:37:52.560Z,24.87
2017-05-14T04:40:22.307Z,22.78
2017-05-14T04:42:52.007Z,21.72
2017-05-14T04:45:21.756Z,22.28
2017-05-14T04:47:51.459Z,24.40
2017-05-14T04:50:21.189Z,21.40
2017-05-14T04:52:50.855Z,24.24
2017-05-14T04:55:20.611Z,30.04
2017-05-14T04:57:50.273Z,25.26
2017-05-14T05:00:19.945Z,24.80
2017-05-14T05:02:49.681Z,25.26
2017-05-14T05:05:19.407Z,24.56
2017-05-14T05:07:49.392Z,24.48
2017-05-14T05:10:19.628Z,22.60
2017-05-14T05:12:49.408Z,26.06
2017-05-14T05:15:19.156Z,23.47
2017-05-14T05:17:48.857Z,27.10
2017-05-14T05:20:18.577Z,23.93
2017-05-14T05:22:47.468Z,23.07
2017-05-14T05:25:17.177Z,23.32
2017-05-14T05:27:46.876Z,26.12
2017-05-14T05:30:16.571Z,25.66
2017-05-14T05:32:46.302Z,29.34
2017-05-14T05:35:16.003Z,27.32
2017-05-14T05:37:45.711Z,27.93
2017-05-14T05:40:15.398Z,26.87
2017-05-14T05:42:45.119Z,31.43
2017-05-14T05:45:14.841Z,28.03
2017-05-14T05:47:44.552Z,28.25
2017-05-14T05:50:14.267Z,28.88
2017-05-14T05:52:43.956Z,34.33
2017-05-14T05:55:13.695Z,32.10
2017-05-14T05:57:43.430Z,34.40
2017-05-14T06:00:13.149Z,29.43
2017-05-14T06:02:42.870Z,31.77
2017-05-14T06:05:12.781Z,35.65
2017-05-14T06:07:42.464Z,32.88
2017-05-14T06:10:12.181Z,36.35
2017-05-14T06:12:41.866Z,39.03
2017-05-14T06:15:11.567Z,35.08
2017-05-14T06:17:41.248Z,34.88
2017-05-14T06:20:10.991Z,32.45
2017-05-14T06:22:40.753Z,32.88
2017-05-14T06:25:10.536Z,27.85
2017-05-14T06:27:41.614Z,31.77
2017-05-14T06:30:11.308Z,29.17
2017-05-14T06:32:41.019Z,31.22
2017-05-14T06:35:10.736Z,35.06
2017-05-14T06:37:40.511Z,36.32
2017-05-14T06:40:10.212Z,36.07
2017-05-14T06:42:39.904Z,35.52
2017-05-14T06:45:08.852Z,39.13
2017-05-14T06:47:38.530Z,40.15
2017-05-14T06:50:15.087Z,38.20
2017-05-14T06:52:44.793Z,37.47
2017-05-14T06:56:17.036Z,40.10
2017-05-14T06:58:46.827Z,38.68
2017-05-14T07:01:16.540Z,35.47
2017-05-14T07:03:46.424Z,36.92
2017-05-14T07:06:16.158Z,37.35
2017-05-14T07:08:45.887Z,41.67
2017-05-14T07:11:15.819Z,40.02
2017-05-14T07:13:45.480Z,37.98
2017-05-14T07:16:15.163Z,39.17
2017-05-14T07:18:44.139Z,41.08
2017-05-14T07:21:13.835Z,42.05
2017-05-14T07:23:43.560Z,36.58
2017-05-14T07:26:13.504Z,33.62
2017-05-14T07:28:43.261Z,41.50
2017-05-14T07:31:13.612Z,40.35
2017-05-14T07:33:43.315Z,36.08
2017-05-14T07:36:12.322Z,34.35
2017-05-14T07:38:42.063Z,35.35
2017-05-14T07:41:12.190Z,35.67
2017-05-14T07:43:41.934Z,40.53
2017-05-14T07:46:12.095Z,35.55
2017-05-14T07:48:41.847Z,40.28
2017-05-14T07:51:11.613Z,35.64
2017-05-14T07:53:42.292Z,38.65
2017-05-14T07:56:11.989Z,35.25
2017-05-14T07:58:41.745Z,33.85
2017-05-14T08:01:11.558Z,33.80
2017-05-14T08:03:41.365Z,37.75
2017-05-14T08:06:11.140Z,38.38
2017-05-14T08:08:41.719Z,32.42
2017-05-14T08:11:10.705Z,36.13
2017-05-14T08:13:40.509Z,33.72
2017-05-14T08:16:10.261Z,30.28
2017-05-14T08:18:40.815Z,32.20
2017-05-14T08:21:10.576Z,32.50
2017-05-14T08:23:40.276Z,32.64
2017-05-14T08:26:10.000Z,31.85
2017-05-14T08:28:39.762Z,29.72
2017-05-14T08:31:09.647Z,29.94
2017-05-14T08:33:39.457Z,28.98
2017-05-14T08:36:09.233Z,26.62
2017-05-14T08:38:39.050Z,28.42
2017-05-14T08:41:08.789Z,25.86
2017-05-14T08:43:39.151Z,25.66
2017-05-14T08:46:09.819Z,25.08
2017-05-14T08:48:39.519Z,24.60
2017-05-14T08:51:09.266Z,25.96
2017-05-14T08:53:39.813Z,22.10
2017-05-14T08:56:09.531Z,23.50
2017-05-14T08:58:40.589Z,23.06
2017-05-14T09:01:10.667Z,23.26
2017-05-14T09:03:40.444Z,22.64
2017-05-14T09:06:10.248Z,22.84
2017-05-14T09:08:41.408Z,20.34
2017-05-14T09:11:11.200Z,20.48
2017-05-14T09:13:41.949Z,19.52
2017-05-14T09:16:12.504Z,21.92
2017-05-14T09:18:43.146Z,22.38
2017-05-14T09:21:14.139Z,20.56
2017-05-14T09:23:43.938Z,22.68
2017-05-14T09:26:13.678Z,22.58
2017-05-14T09:28:44.045Z,21.86
2017-05-14T09:31:13.912Z,21.06
2017-05-14T09:33:45.777Z,20.30
2017-05-14T09:36:15.568Z,18.74
2017-05-14T09:38:45.893Z,19.44
2017-05-14T09:41:16.528Z,19.22
2017-05-14T09:43:46.289Z,16.92
2017-05-14T09:46:16.658Z,16.26
2017-05-14T09:48:46.394Z,17.16
2017-05-14T09:51:16.575Z,16.44
2017-05-14T09:53:46.788Z,18.02
2017-05-14T09:56:17.846Z,15.90
2017-05-14T09:58:48.224Z,12.72
2017-05-14T10:01:17.993Z,10.52
2017-05-14T10:03:47.794Z,9.56
2017-05-14T10:06:18.137Z,13.40
2017-05-14T10:08:47.941Z,12.90
2017-05-14T10:11:18.829Z,15.96
2017-05-14T10:13:48.621Z,13.58
2017-05-14T10:16:18.436Z,12.18
2017-05-14T10:20:08.079Z,13.86
2017-05-14T10:24:44.130Z,13.36
2017-05-14T10:27:13.874Z,13.98
2017-05-14T10:29:45.006Z,12.30
2017-05-14T10:32:14.824Z,11.78
2017-05-14T10:34:44.601Z,11.86
2017-05-14T10:37:15.295Z,10.46
2017-05-14T10:39:48.398Z,10.48
2017-05-14T10:42:18.707Z,10.72
2017-05-14T10:44:49.794Z,11.52
2017-05-14T10:47:20.624Z,9.76
2017-05-14T10:49:51.404Z,10.34
2017-05-14T10:52:22.200Z,9.78
2017-05-14T10:54:53.040Z,8.82
2017-05-14T10:57:23.884Z,9.94
2017-05-14T10:59:53.087Z,8.26
2017-05-14T11:02:23.509Z,7.00
2017-05-14T11:04:54.951Z,8.48
2017-05-14T11:07:25.395Z,7.14
2017-05-14T11:09:56.195Z,7.76
2017-05-14T11:12:26.522Z,7.10
2017-05-14T11:14:56.317Z,4.68
2017-05-14T11:17:26.092Z,5.78
2017-05-14T11:19:56.650Z,3.84
2017-05-14T11:22:26.410Z,5.62
2017-05-14T11:24:56.133Z,5.06
2017-05-14T11:27:27.335Z,4.62
2017-05-14T11:29:56.362Z,6.42
2017-05-14T11:32:27.550Z,5.58
2017-05-14T11:34:58.102Z,5.56
2017-05-14T11:37:27.862Z,5.48
2017-05-14T11:39:58.189Z,5.24
2017-05-14T11:42:27.952Z,6.60
2017-05-14T11:44:57.708Z,6.04
2017-05-14T11:47:27.499Z,5.22
2017-05-14T11:49:57.741Z,4.82
2017-05-14T11:52:32.607Z,5.84
2017-05-14T11:55:02.461Z,6.06
2017-05-14T11:57:35.845Z,6.28
2017-05-14T12:00:05.573Z,5.60
2017-05-14T12:02:35.349Z,6.12
2017-05-14T12:05:06.005Z,4.24
2017-05-14T12:07:35.797Z,6.00
2017-05-14T12:10:07.046Z,4.60
2017-05-14T12:12:36.741Z,4.22
2017-05-14T12:15:06.525Z,5.12
2017-05-14T12:17:36.281Z,4.30
2017-05-14T12:20:06.046Z,8.14
2017-05-14T12:22:35.783Z,5.16
2017-05-14T12:25:06.833Z,4.26
2017-05-14T12:27:36.664Z,5.14
2017-05-14T12:30:07.027Z,4.78
2017-05-14T12:32:36.774Z,4.60
2017-05-14T12:35:07.479Z,5.44
2017-05-14T12:37:37.211Z,5.44
2017-05-14T12:40:08.643Z,3.54
2017-05-14T12:42:38.373Z,4.52
2017-05-14T12:45:08.215Z,4.28
2017-05-14T12:47:37.947Z,3.46
2017-05-14T12:50:07.660Z,3.40
2017-05-14T12:52:40.795Z,3.34
2017-05-14T12:55:10.609Z,4.40
2017-05-14T12:57:42.298Z,5.78
2017-05-14T13:00:12.071Z,3.48
2017-05-14T13:02:41.862Z,3.70
2017-05-14T13:05:11.554Z,4.44
2017-05-14T13:07:43.266Z,3.98
2017-05-14T13:10:13.114Z,3.56
2017-05-14T13:12:45.256Z,3.86
2017-05-14T13:15:15.300Z,4.04
2017-05-14T13:17:45.059Z,5.78
2017-05-14T13:20:14.828Z,4.80
2017-05-14T13:22:44.567Z,5.08
2017-05-14T13:25:14.316Z,3.58
2017-05-14T13:27:44.093Z,4.24
2017-05-14T13:30:15.509Z,3.52
2017-05-14T13:32:45.440Z,5.14
2017-05-14T13:35:15.194Z,2.76
2017-05-14T13:37:45.518Z,3.72
2017-05-14T13:40:15.285Z,4.82
2017-05-14T13:42:45.803Z,3.48
2017-05-14T13:45:19.180Z,3.40
2017-05-14T13:47:48.985Z,6.44
2017-05-14T13:50:20.157Z,4.84
2017-05-14T13:52:51.766Z,3.50
2017-05-14T13:55:21.852Z,4.26
2017-05-14T13:57:51.693Z,6.40
2017-05-14T14:00:21.742Z,4.28
2017-05-14T14:02:51.617Z,3.68
2017-05-14T14:05:21.572Z,8.02
2017-05-14T14:07:51.360Z,7.56
2017-05-14T14:10:22.167Z,5.32
2017-05-14T14:12:51.223Z,4.50
2017-05-14T14:15:20.964Z,3.92
2017-05-14T14:17:50.797Z,4.64
2017-05-14T14:20:21.591Z,5.04
2017-05-14T14:22:51.550Z,4.70
2017-05-14T14:25:21.902Z,3.90
2017-05-14T14:27:52.960Z,4.26
2017-05-14T14:30:22.918Z,5.06
2017-05-14T14:32:53.502Z,3.54
2017-05-14T14:35:25.257Z,4.54
2017-05-14T14:37:56.718Z,3.40
2017-05-14T14:45:55.114Z,5.46
2017-05-14T14:48:25.496Z,4.38
2017-05-14T14:50:54.752Z,4.44
2017-05-14T14:53:25.436Z,3.20
2017-05-14T14:55:55.257Z,5.90
2017-05-14T14:58:25.786Z,6.36
2017-05-14T15:00:56.493Z,3.52
2017-05-14T15:03:26.260Z,5.02
2017-05-14T15:05:56.913Z,3.62
2017-05-14T15:08:27.115Z,3.82
2017-05-14T15:10:58.183Z,4.80
2017-05-14T15:13:29.212Z,4.34
2017-05-14T15:16:30.347Z,4.24
2017-05-14T15:19:00.109Z,5.82
2017-05-14T15:21:29.910Z,7.00
2017-05-14T15:23:59.635Z,5.62
2017-05-14T15:26:29.363Z,4.92
2017-05-14T15:28:59.147Z,3.50
2017-05-14T15:31:28.876Z,4.38
2017-05-14T15:33:59.228Z,3.26
2017-05-14T15:36:29.043Z,4.68
2017-05-14T15:38:58.764Z,2.90
2017-05-14T15:41:28.539Z,3.32
2017-05-14T15:43:58.266Z,3.44
2017-05-14T15:46:29.493Z,3.10
2017-05-14T15:49:00.120Z,3.06
2017-05-14T15:51:30.475Z,3.02
2017-05-14T15:54:01.406Z,3.66
2017-05-14T15:56:31.245Z,1.85
2017-05-14T15:59:02.635Z,1.80
2017-05-14T16:01:31.804Z,2.34
2017-05-14T16:04:02.284Z,1.80
2017-05-14T16:07:52.140Z,2.52
2017-05-14T16:10:21.951Z,3.82
2017-05-14T16:12:53.296Z,1.16
2017-05-14T16:15:24.499Z,1.92
2017-05-14T16:17:55.678Z,1.50
2017-05-14T16:20:26.351Z,1.40
2017-05-14T16:22:56.206Z,1.50
2017-05-14T16:25:26.189Z,1.96
2017-05-14T16:27:56.104Z,1.64
2017-05-14T16:30:25.960Z,1.74
2017-05-14T16:32:58.128Z,1.88
2017-05-14T16:35:28.519Z,2.74
2017-05-14T16:37:58.325Z,2.02
2017-05-14T16:40:28.095Z,3.22
2017-05-14T16:42:57.843Z,2.86
2017-05-14T16:45:26.839Z,2.60
2017-05-14T16:47:56.690Z,2.54
2017-05-14T16:50:27.593Z,3.02
2017-05-14T16:54:16.811Z,4.36
2017-05-14T16:56:47.512Z,6.16
2017-05-14T16:59:17.771Z,3.94
2017-05-14T17:01:47.723Z,3.24
2017-05-14T17:04:17.809Z,3.40
2017-05-14T17:06:47.674Z,3.60
2017-05-14T17:09:17.483Z,3.38
2017-05-14T17:11:48.039Z,3.78
2017-05-14T17:14:18.823Z,3.86
2017-05-14T17:16:48.615Z,3.64
2017-05-14T17:19:18.351Z,4.38
2017-05-14T17:21:48.864Z,5.46
2017-05-14T17:24:18.683Z,3.58
2017-05-14T17:29:30.802Z,4.24
2017-05-14T17:32:00.845Z,4.26
2017-05-14T17:34:31.611Z,5.44
2017-05-14T17:37:01.903Z,4.00
2017-05-14T17:39:33.079Z,4.00
2017-05-14T17:42:03.347Z,5.04
2017-05-14T17:44:36.751Z,4.94
2017-05-14T17:47:07.402Z,5.24
2017-05-14T17:49:40.780Z,3.94
2017-05-14T17:52:11.186Z,3.86
2017-05-14T17:54:41.624Z,4.60
2017-05-14T17:57:12.152Z,4.40
2017-05-14T17:59:42.179Z,4.14
2017-05-14T18:02:16.282Z,4.92
2017-05-14T18:04:46.324Z,5.16
2017-05-14T18:07:18.221Z,5.30
2017-05-14T18:09:49.509Z,4.12
2017-05-14T18:12:19.480Z,4.72
2017-05-14T18:14:50.067Z,4.44
2017-05-14T18:17:19.987Z,4.50
2017-05-14T18:19:50.402Z,3.78
2017-05-14T18:22:23.526Z,4.20
2017-05-14T18:24:54.586Z,7.26
2017-05-14T18:27:25.542Z,5.90
2017-05-14T18:29:55.366Z,3.38
2017-05-14T18:32:25.184Z,3.30
2017-05-14T18:34:57.496Z,4.12
2017-05-14T18:37:27.570Z,3.34
2017-05-14T18:39:57.546Z,3.22
2017-05-14T18:42:29.705Z,3.30
2017-05-14T18:44:59.466Z,3.24
2017-05-14T18:47:29.865Z,4.50
2017-05-14T18:50:01.895Z,3.44
2017-05-14T18:52:33.023Z,3.24
2017-05-14T18:55:05.291Z,3.24
2017-05-14T18:57:35.053Z,3.28
2017-05-14T19:00:08.415Z,3.56
2017-05-14T19:02:38.277Z,3.20
2017-05-14T19:05:08.142Z,4.10
2017-05-14T19:07:38.613Z,3.26
2017-05-14T19:10:08.415Z,2.58
2017-05-14T19:12:38.488Z,3.10
2017-05-14T19:15:09.010Z,2.88
2017-05-14T19:17:38.751Z,2.50
2017-05-14T19:20:12.838Z,2.62
2017-05-14T19:22:42.611Z,2.68
2017-05-14T19:25:14.188Z,2.36
2017-05-14T19:27:44.730Z,2.70
2017-05-14T19:30:15.300Z,4.02
2017-05-14T19:33:15.675Z,5.16
2017-05-14T19:35:47.036Z,3.36
2017-05-14T19:38:17.710Z,2.64
2017-05-14T19:40:48.831Z,7.02
2017-05-14T19:43:20.332Z,1.80
2017-05-14T19:45:57.248Z,2.64
2017-05-14T19:48:29.510Z,2.92
2017-05-14T19:51:01.189Z,2.48
2017-05-14T19:53:32.652Z,2.42
2017-05-14T19:56:03.691Z,2.92
2017-05-14T19:58:35.398Z,2.32
2017-05-14T20:01:04.476Z,2.56
2017-05-14T20:03:38.478Z,2.36
2017-05-14T20:06:09.130Z,3.30
2017-05-14T20:08:43.196Z,3.17
2017-05-14T20:11:13.319Z,2.92
2017-05-14T20:13:45.044Z,2.44
2017-05-14T20:16:15.028Z,2.33
2017-05-14T20:18:46.062Z,4.06
2017-05-14T20:21:16.762Z,2.28
2017-05-14T20:23:49.135Z,2.64
2017-05-14T20:26:19.398Z,3.55
2017-05-14T20:28:51.779Z,4.36
2017-05-14T20:31:21.591Z,4.50
2017-05-14T20:33:53.879Z,5.48
2017-05-14T20:36:24.849Z,4.80
2017-05-14T20:38:55.532Z,7.76
2017-05-14T20:41:25.256Z,7.56
2017-05-14T20:43:55.379Z,11.32
2017-05-14T20:46:26.859Z,15.26
2017-05-14T20:48:57.219Z,25.02
2017-05-14T20:51:28.462Z,23.12
2017-05-14T20:53:58.984Z,17.10
2017-05-14T20:56:30.402Z,18.38
2017-05-14T20:59:00.296Z,16.57
2017-05-14T21:01:30.354Z,15.48
2017-05-14T21:04:03.312Z,19.60
2017-05-14T21:06:33.389Z,25.55
2017-05-14T21:09:04.283Z,37.38
2017-05-14T21:11:34.767Z,20.28
2017-05-14T21:14:05.293Z,26.13
2017-05-14T21:16:35.717Z,12.35
2017-05-14T21:19:08.161Z,15.03
2017-05-14T21:21:38.219Z,12.20
2017-05-14T21:24:07.945Z,12.77
2017-05-14T21:26:38.796Z,13.00
2017-05-14T21:29:09.771Z,13.92
2017-05-14T21:31:39.519Z,13.65
2017-05-14T21:34:09.279Z,13.60
2017-05-14T21:36:39.681Z,14.18
2017-05-14T21:39:14.012Z,14.55
2017-05-14T21:41:44.784Z,13.25
2017-05-14T21:44:14.528Z,12.67
2017-05-14T21:46:44.271Z,12.50
2017-05-14T21:49:14.023Z,14.08
2017-05-14T21:51:43.804Z,11.98
2017-05-14T21:54:12.836Z,15.18
2017-05-14T21:56:43.336Z,13.53
2017-05-14T21:59:13.842Z,13.88
2017-05-14T22:01:47.755Z,13.73
2017-05-14T22:04:18.944Z,11.42
2017-05-14T22:06:49.675Z,13.75
2017-05-14T22:09:19.485Z,13.98
2017-05-14T22:11:49.271Z,13.02
2017-05-14T22:14:19.017Z,12.22
2017-05-14T22:16:48.703Z,19.35
2017-05-14T22:19:18.508Z,12.98
2017-05-14T22:21:48.259Z,17.63
2017-05-14T22:24:17.973Z,12.54
2017-05-14T22:26:47.702Z,12.27
2017-05-14T22:29:17.448Z,12.15
2017-05-14T22:31:47.171Z,13.13
2017-05-14T22:34:16.142Z,12.63
2017-05-14T22:36:45.909Z,17.33
2017-05-14T22:39:16.122Z,12.15
2017-05-14T22:41:47.730Z,12.82
2017-05-14T22:44:16.652Z,13.30
2017-05-14T22:46:46.303Z,13.57
2017-05-14T22:49:16.061Z,13.45
2017-05-14T22:51:45.775Z,13.33
2017-05-14T22:54:15.488Z,11.23
2017-05-14T22:56:45.216Z,11.13
2017-05-14T22:59:14.925Z,10.82
2017-05-14T23:01:44.631Z,10.67
2017-05-14T23:04:14.380Z,10.42
2017-05-14T23:06:44.091Z,10.90
2017-05-14T23:09:13.784Z,11.05
2017-05-14T23:11:43.527Z,12.80
2017-05-14T23:14:13.264Z,14.15
2017-05-14T23:16:43.027Z,11.80
2017-05-14T23:19:12.713Z,10.70
2017-05-14T23:21:42.483Z,20.68
2017-05-14T23:24:12.198Z,11.17
2017-05-14T23:28:01.301Z,12.00
2017-05-14T23:30:31.044Z,12.55
2017-05-14T23:33:00.717Z,16.37
2017-05-14T23:35:30.407Z,14.00
2017-05-14T23:38:00.135Z,11.23
2017-05-14T23:40:29.907Z,10.96
2017-05-14T23:42:59.591Z,10.90
2017-05-14T23:45:29.292Z,10.65
2017-05-14T23:47:59.032Z,13.58
2017-05-14T23:50:28.752Z,11.62
2017-05-14T23:52:58.628Z,14.65
2017-05-14T23:55:28.323Z,11.33
2017-05-14T23:57:58.082Z,13.10
